createdAt,value
2022-12-17T00:01:52.400Z,46.60
2022-12-17T00:04:37.552Z,46.25
2022-12-17T00:10:32.191Z,45.75
2022-12-17T00:13:17.280Z,47.25
2022-12-17T00:16:02.332Z,48.45
2022-12-17T00:18:47.648Z,46.55
2022-12-17T00:21:32.499Z,47.33
2022-12-17T00:24:17.424Z,48.17
2022-12-17T00:27:28.292Z,46.25
2022-12-17T00:30:13.137Z,48.45
2022-12-17T00:32:58.322Z,47.20
2022-12-17T00:35:43.677Z,43.85
2022-12-17T00:38:36.871Z,47.20
2022-12-17T00:41:22.467Z,45.35
2022-12-17T00:44:07.424Z,47.33
2022-12-17T00:46:52.593Z,46.08
2022-12-17T00:49:37.942Z,46.22
2022-12-17T00:52:23.212Z,46.05
2022-12-17T00:55:08.230Z,47.05
2022-12-17T00:57:53.741Z,46.92
2022-12-17T01:00:38.847Z,45.55
2022-12-17T01:03:30.224Z,46.30
2022-12-17T01:06:19.454Z,48.35
2022-12-17T01:09:04.653Z,49.35
2022-12-17T01:11:49.859Z,46.92
2022-12-17T01:14:35.013Z,49.83
2022-12-17T01:17:20.726Z,48.15
2022-12-17T01:20:09.524Z,46.90
2022-12-17T01:22:56.526Z,46.63
2022-12-17T01:25:41.619Z,52.22
2022-12-17T01:28:26.787Z,54.55
2022-12-17T01:31:12.259Z,49.25
2022-12-17T01:33:57.626Z,49.35
2022-12-17T01:36:44.803Z,48.63
2022-12-17T01:39:30.122Z,47.33
2022-12-17T01:42:15.325Z,45.38
2022-12-17T01:45:00.347Z,50.30
2022-12-17T01:47:48.423Z,46.25
2022-12-17T01:50:36.137Z,49.00
2022-12-17T01:53:24.391Z,47.95
2022-12-17T01:56:10.592Z,46.50
2022-12-17T01:58:59.309Z,46.80
2022-12-17T02:01:45.313Z,45.00
2022-12-17T02:04:30.835Z,45.67
2022-12-17T02:07:38.263Z,44.92
2022-12-17T02:10:52.496Z,44.42
2022-12-17T02:13:49.062Z,42.35
2022-12-17T02:16:43.075Z,44.22
2022-12-17T02:19:56.394Z,46.30
2022-12-17T02:23:00.596Z,43.97
2022-12-17T02:26:01.229Z,45.25
2022-12-17T02:28:46.509Z,44.90
2022-12-17T02:31:33.795Z,46.72
2022-12-17T02:34:21.957Z,42.97
2022-12-17T02:37:11.698Z,43.40
2022-12-17T02:39:56.893Z,44.77
2022-12-17T02:42:44.972Z,44.10
2022-12-17T02:45:31.044Z,44.67
2022-12-17T02:48:16.878Z,44.58
2022-12-17T02:51:02.040Z,42.40
2022-12-17T02:53:47.527Z,45.22
2022-12-17T02:56:32.762Z,42.58
2022-12-17T02:59:18.190Z,45.17
2022-12-17T03:02:04.107Z,45.88
2022-12-17T03:04:50.186Z,47.60
2022-12-17T03:07:35.189Z,45.08
2022-12-17T03:10:25.979Z,43.00
2022-12-17T03:13:13.089Z,44.50
2022-12-17T03:15:58.580Z,46.33
2022-12-17T03:18:43.940Z,48.05
2022-12-17T03:21:28.933Z,46.55
2022-12-17T03:24:14.225Z,41.55
2022-12-17T03:26:59.286Z,40.83
2022-12-17T03:29:44.886Z,40.50
2022-12-17T03:32:29.799Z,38.90
2022-12-17T03:35:18.150Z,39.63
2022-12-17T03:38:03.423Z,40.03
2022-12-17T03:40:48.496Z,39.17
2022-12-17T03:43:33.656Z,38.50
2022-12-17T03:46:18.900Z,36.90
2022-12-17T03:49:04.169Z,38.80
2022-12-17T03:51:49.555Z,38.35
2022-12-17T03:54:34.577Z,43.17
2022-12-17T03:57:19.990Z,45.10
2022-12-17T04:00:05.293Z,40.15
2022-12-17T04:02:57.913Z,39.30
2022-12-17T04:05:43.125Z,39.38
2022-12-17T04:08:28.464Z,42.10
2022-12-17T04:11:16.487Z,42.80
2022-12-17T04:14:01.633Z,40.80
2022-12-17T04:16:46.810Z,41.15
2022-12-17T04:19:31.962Z,40.25
2022-12-17T04:22:17.158Z,40.17
2022-12-17T04:25:02.596Z,40.60
2022-12-17T04:27:48.013Z,38.50
2022-12-17T04:30:33.219Z,39.60
2022-12-17T04:33:18.514Z,45.25
2022-12-17T04:36:03.726Z,42.75
2022-12-17T04:38:48.894Z,45.03
2022-12-17T04:41:34.179Z,44.35
2022-12-17T04:44:19.460Z,45.22
2022-12-17T04:47:04.660Z,44.85
2022-12-17T04:50:15.241Z,46.80
2022-12-17T04:53:00.270Z,45.50
2022-12-17T04:55:45.789Z,44.35
2022-12-17T04:58:31.089Z,46.60
2022-12-17T05:01:16.138Z,43.38
2022-12-17T05:04:01.459Z,45.13
2022-12-17T05:06:47.230Z,45.47
2022-12-17T05:09:35.339Z,45.17
2022-12-17T05:12:20.395Z,45.38
2022-12-17T05:15:05.584Z,47.67
2022-12-17T05:17:50.938Z,44.67
2022-12-17T05:20:45.500Z,44.78
2022-12-17T05:23:30.797Z,44.30
2022-12-17T05:26:24.747Z,45.85
2022-12-17T05:29:15.591Z,45.22
2022-12-17T05:32:04.086Z,44.10
2022-12-17T05:34:49.283Z,44.35
2022-12-17T05:37:34.318Z,45.38
2022-12-17T05:40:19.453Z,45.42
2022-12-17T05:43:21.021Z,47.55
2022-12-17T05:46:07.140Z,44.67
2022-12-17T05:48:53.320Z,47.80
2022-12-17T05:51:39.341Z,42.53
2022-12-17T05:54:25.144Z,45.13
2022-12-17T06:00:19.630Z,43.75
2022-12-17T06:03:05.134Z,42.70
2022-12-17T06:05:50.879Z,41.67
2022-12-17T06:08:49.702Z,41.75
2022-12-17T06:11:35.041Z,41.30
2022-12-17T06:14:38.511Z,40.05
2022-12-17T06:17:24.141Z,41.25
2022-12-17T06:20:09.605Z,43.15
2022-12-17T06:22:54.651Z,49.03
2022-12-17T06:25:39.820Z,44.70
2022-12-17T06:28:24.647Z,42.90
2022-12-17T06:31:11.541Z,41.67
2022-12-17T06:33:57.129Z,41.88
2022-12-17T06:36:42.283Z,41.65
2022-12-17T06:39:27.941Z,42.95
2022-12-17T06:42:13.467Z,44.03
2022-12-17T06:51:17.008Z,39.83
2022-12-17T06:54:02.188Z,42.60
2022-12-17T06:56:47.144Z,42.40
2022-12-17T06:59:32.173Z,42.38
2022-12-17T07:02:17.507Z,42.40
2022-12-17T07:05:02.951Z,43.97
2022-12-17T07:07:51.196Z,43.05
2022-12-17T07:11:03.498Z,42.00
2022-12-17T07:13:48.605Z,44.40
2022-12-17T07:16:33.959Z,42.38
2022-12-17T07:19:23.870Z,40.47
2022-12-17T07:22:11.893Z,41.15
2022-12-17T07:24:56.748Z,42.35
2022-12-17T07:27:41.993Z,43.22
2022-12-17T07:30:28.016Z,39.88
2022-12-17T07:33:25.106Z,42.50
2022-12-17T07:39:41.772Z,40.63
2022-12-17T07:42:27.032Z,38.85
2022-12-17T07:45:12.301Z,40.47
2022-12-17T07:47:59.509Z,41.58
2022-12-17T07:50:44.835Z,41.05
2022-12-17T07:53:30.297Z,40.22
2022-12-17T07:56:15.665Z,40.72
2022-12-17T07:59:00.936Z,41.28
2022-12-17T08:01:45.957Z,38.85
2022-12-17T08:04:31.338Z,42.97
2022-12-17T08:07:16.273Z,42.97
2022-12-17T08:10:01.451Z,43.50
2022-12-17T08:12:46.675Z,42.83
2022-12-17T08:15:32.074Z,40.30
2022-12-17T08:18:26.195Z,40.90
2022-12-17T08:21:12.425Z,43.20
2022-12-17T08:23:57.677Z,41.45
2022-12-17T08:26:47.505Z,43.60
2022-12-17T08:29:33.480Z,41.08
2022-12-17T08:32:18.917Z,38.15
2022-12-17T08:35:04.262Z,36.00
2022-12-17T08:37:50.106Z,35.92
2022-12-17T08:40:35.731Z,34.20
2022-12-17T08:43:21.043Z,35.30
2022-12-17T08:46:07.798Z,35.22
2022-12-17T08:48:53.026Z,35.50
2022-12-17T08:51:40.232Z,37.78
2022-12-17T08:54:25.320Z,38.75
2022-12-17T08:57:10.648Z,37.33
2022-12-17T08:59:56.231Z,38.42
2022-12-17T09:02:41.671Z,35.63
2022-12-17T09:05:52.862Z,37.97
2022-12-17T09:08:37.842Z,37.35
2022-12-17T09:11:23.062Z,37.00
2022-12-17T09:14:08.271Z,38.17
2022-12-17T09:17:18.532Z,38.17
2022-12-17T09:20:03.737Z,39.10
2022-12-17T09:22:49.034Z,42.88
2022-12-17T09:25:34.620Z,42.80
2022-12-17T09:28:21.030Z,41.53
2022-12-17T09:37:50.680Z,40.25
2022-12-17T09:40:41.091Z,43.17
2022-12-17T09:43:44.723Z,41.78
2022-12-17T09:46:36.283Z,42.08
2022-12-17T09:49:46.733Z,43.88
2022-12-17T09:52:37.859Z,44.13
2022-12-17T09:56:04.328Z,41.70
2022-12-17T09:58:53.276Z,41.67
2022-12-17T10:05:26.073Z,42.90
2022-12-17T10:11:03.396Z,37.42
2022-12-17T10:13:52.112Z,43.97
2022-12-17T10:16:49.445Z,49.13
2022-12-17T10:19:48.932Z,44.72
2022-12-17T10:22:51.299Z,43.42
2022-12-17T10:26:15.370Z,41.97
2022-12-17T10:29:00.592Z,41.33
2022-12-17T10:31:48.553Z,41.72
2022-12-17T10:34:36.778Z,44.03
2022-12-17T10:37:42.691Z,41.50
2022-12-17T10:40:48.112Z,40.55
2022-12-17T10:43:51.821Z,40.22
2022-12-17T10:46:51.257Z,41.47
2022-12-17T10:49:42.995Z,43.78
2022-12-17T10:52:48.570Z,42.47
2022-12-17T10:55:47.265Z,38.20
2022-12-17T10:58:50.404Z,42.60
2022-12-17T11:01:44.934Z,40.90
2022-12-17T11:04:48.485Z,42.28
2022-12-17T11:07:42.712Z,42.95
2022-12-17T11:10:41.115Z,42.45
2022-12-17T11:13:34.863Z,39.90
2022-12-17T11:16:26.475Z,43.83
2022-12-17T11:19:42.339Z,43.90
2022-12-17T11:22:41.261Z,44.65
2022-12-17T11:25:40.838Z,43.35
2022-12-17T11:28:37.495Z,44.15
2022-12-17T11:31:48.688Z,42.95
2022-12-17T11:35:03.578Z,43.95
2022-12-17T11:38:00.676Z,45.72
2022-12-17T11:44:32.343Z,44.25
2022-12-17T11:48:09.183Z,41.95
2022-12-17T11:51:10.764Z,45.45
2022-12-17T11:54:18.752Z,45.13
2022-12-17T12:00:25.104Z,44.05
2022-12-17T12:03:38.219Z,46.25
2022-12-17T12:06:36.786Z,43.33
2022-12-17T12:09:51.719Z,43.40
2022-12-17T12:12:58.194Z,43.88
2022-12-17T12:16:04.506Z,46.20
2022-12-17T12:19:27.547Z,42.05
2022-12-17T12:22:47.708Z,45.40
2022-12-17T12:26:21.870Z,45.10
2022-12-17T12:29:20.397Z,43.80
2022-12-17T12:32:37.852Z,44.07
2022-12-17T12:35:26.662Z,41.83
2022-12-17T12:38:12.845Z,43.55
2022-12-17T12:41:12.114Z,42.53
2022-12-17T12:44:02.396Z,42.20
2022-12-17T12:47:00.067Z,42.50
2022-12-17T12:49:46.672Z,40.88
2022-12-17T12:53:22.532Z,41.85
2022-12-17T12:56:15.648Z,42.47
2022-12-17T13:02:12.738Z,41.83
2022-12-17T13:05:16.430Z,39.95
2022-12-17T13:07:43.025Z,44.15
2022-12-17T13:10:28.303Z,40.60
2022-12-17T13:12:55.229Z,41.78
2022-12-17T13:15:48.094Z,33.55
2022-12-17T13:18:17.345Z,39.65
2022-12-17T13:20:43.963Z,44.20
2022-12-17T13:23:33.021Z,44.10
2022-12-17T13:26:17.002Z,40.42
2022-12-17T13:29:24.405Z,41.90
2022-12-17T13:32:23.863Z,40.88
2022-12-17T13:38:02.327Z,40.13
2022-12-17T13:41:13.477Z,44.67
2022-12-17T13:43:43.726Z,46.03
2022-12-17T13:46:30.452Z,46.25
2022-12-17T13:49:00.205Z,46.92
2022-12-17T13:51:29.911Z,47.03
2022-12-17T13:54:04.516Z,46.88
2022-12-17T13:56:35.587Z,47.97
2022-12-17T13:59:09.193Z,47.28
2022-12-17T14:01:45.824Z,48.63
2022-12-17T14:04:21.512Z,46.53
2022-12-17T14:06:48.657Z,49.58
2022-12-17T14:09:26.559Z,50.25
2022-12-17T14:12:11.809Z,45.70
2022-12-17T14:14:41.575Z,47.55
2022-12-17T14:17:20.964Z,47.80
2022-12-17T14:20:01.463Z,45.70
2022-12-17T14:22:54.272Z,47.53
2022-12-17T14:25:24.235Z,50.42
2022-12-17T14:27:58.802Z,45.17
2022-12-17T14:30:46.322Z,44.20
2022-12-17T14:33:28.573Z,46.55
2022-12-17T14:36:00.757Z,48.60
2022-12-17T14:38:38.040Z,46.60
2022-12-17T14:41:31.373Z,47.95
2022-12-17T14:44:00.203Z,44.15
2022-12-17T14:46:31.820Z,42.92
2022-12-17T14:49:00.804Z,42.03
2022-12-17T14:51:36.887Z,45.10
2022-12-17T14:54:29.981Z,44.95
2022-12-17T14:56:59.341Z,46.15
2022-12-17T14:59:37.952Z,42.40
2022-12-17T15:02:26.771Z,44.67
2022-12-17T15:05:04.521Z,48.08
2022-12-17T15:07:32.083Z,44.22
2022-12-17T15:10:11.615Z,46.28
2022-12-17T15:15:06.881Z,42.55
2022-12-17T15:17:33.496Z,42.35
2022-12-17T15:20:00.157Z,43.38
2022-12-17T15:22:26.943Z,42.83
2022-12-17T15:24:53.549Z,42.40
2022-12-17T15:27:20.289Z,40.72
2022-12-17T15:29:46.955Z,42.78
2022-12-17T15:32:38.742Z,41.72
2022-12-17T15:35:05.836Z,39.25
2022-12-17T15:37:32.498Z,41.72
2022-12-17T15:39:59.084Z,41.20
2022-12-17T15:42:44.498Z,42.55
2022-12-17T15:45:11.095Z,43.10
2022-12-17T15:48:02.759Z,44.22
2022-12-17T15:50:36.668Z,41.50
2022-12-17T15:53:03.532Z,38.35
2022-12-17T15:56:01.637Z,39.40
2022-12-17T15:58:28.618Z,41.97
2022-12-17T16:00:55.254Z,106.97
2022-12-17T16:03:22.218Z,70.07
2022-12-17T16:05:48.891Z,43.63
2022-12-17T16:08:15.603Z,43.35
2022-12-17T16:10:42.354Z,43.03
2022-12-17T16:13:08.968Z,44.72
2022-12-17T16:16:03.396Z,44.50
2022-12-17T16:18:41.190Z,44.90
2022-12-17T16:21:20.368Z,41.90
2022-12-17T16:23:47.073Z,36.80
2022-12-17T16:26:13.753Z,43.95
2022-12-17T16:28:58.694Z,43.40
2022-12-17T16:31:25.652Z,40.92
2022-12-17T16:33:52.389Z,41.75
2022-12-17T16:36:21.099Z,41.42
2022-12-17T16:38:52.731Z,42.58
2022-12-17T16:41:21.535Z,40.80
2022-12-17T16:43:48.758Z,41.38
2022-12-17T16:46:36.026Z,41.55
2022-12-17T16:49:08.736Z,43.63
2022-12-17T16:51:35.679Z,43.40
2022-12-17T16:54:26.029Z,43.17
2022-12-17T16:56:53.741Z,44.00
2022-12-17T16:59:22.039Z,43.28
2022-12-17T17:01:50.235Z,41.10
2022-12-17T17:04:20.643Z,39.00
2022-12-17T17:06:56.697Z,33.83
2022-12-17T17:09:24.787Z,36.38
2022-12-17T17:11:54.365Z,34.38
2022-12-17T17:14:20.989Z,34.53
2022-12-17T17:16:47.559Z,39.42
2022-12-17T17:19:15.211Z,36.53
2022-12-17T17:21:47.779Z,35.95
2022-12-17T17:24:21.157Z,34.08
2022-12-17T17:26:49.597Z,33.42
2022-12-17T17:29:16.940Z,33.63
2022-12-17T17:34:30.160Z,34.22
2022-12-17T17:36:56.788Z,34.55
2022-12-17T17:39:23.407Z,33.83
2022-12-17T17:41:50.002Z,36.22
2022-12-17T17:44:16.638Z,34.53
2022-12-17T17:46:43.480Z,36.60
2022-12-17T17:49:10.654Z,36.05
2022-12-17T17:54:28.816Z,36.38
2022-12-17T17:56:55.686Z,36.95
2022-12-17T17:59:29.540Z,38.55
2022-12-17T18:01:59.510Z,38.67
2022-12-17T18:04:26.298Z,37.33
2022-12-17T18:07:23.779Z,37.97
2022-12-17T18:09:39.959Z,37.65
2022-12-17T18:12:26.042Z,40.30
2022-12-17T18:15:13.297Z,38.55
2022-12-17T18:17:39.460Z,38.67
2022-12-17T18:20:06.648Z,39.05
2022-12-17T18:22:33.287Z,42.00
2022-12-17T18:24:59.828Z,41.55
2022-12-17T18:27:26.349Z,42.20
2022-12-17T18:29:55.948Z,39.70
2022-12-17T18:32:47.590Z,43.72
2022-12-17T18:35:15.042Z,40.83
2022-12-17T18:37:41.773Z,41.10
2022-12-17T18:40:09.153Z,43.67
2022-12-17T18:42:54.534Z,40.40
2022-12-17T18:45:21.161Z,42.35
2022-12-17T18:47:47.915Z,42.13
2022-12-17T18:50:14.510Z,41.85
2022-12-17T18:52:41.068Z,41.33
2022-12-17T18:55:10.960Z,42.38
2022-12-17T18:57:37.632Z,41.63
2022-12-17T19:00:05.239Z,44.53
2022-12-17T19:02:32.061Z,42.65
2022-12-17T19:05:00.089Z,40.42
2022-12-17T19:07:26.764Z,40.45
2022-12-17T19:09:53.471Z,42.42
2022-12-17T19:12:20.070Z,40.00
2022-12-17T19:14:47.454Z,40.90
2022-12-17T19:17:14.116Z,40.42
2022-12-17T19:19:40.637Z,40.45
2022-12-17T19:22:07.227Z,39.40
2022-12-17T19:24:33.861Z,37.55
2022-12-17T19:27:03.462Z,38.15
2022-12-17T19:29:30.191Z,38.25
2022-12-17T19:31:56.842Z,38.63
2022-12-17T19:34:23.516Z,40.03
2022-12-17T19:36:50.054Z,38.03
2022-12-17T19:39:19.645Z,35.28
2022-12-17T19:41:46.526Z,37.30
2022-12-17T19:44:16.738Z,39.25
2022-12-17T19:46:46.842Z,38.75
2022-12-17T19:49:15.512Z,41.83
2022-12-17T19:51:44.170Z,39.28
2022-12-17T19:54:13.028Z,37.30
2022-12-17T19:56:39.888Z,36.10
2022-12-17T19:59:09.490Z,37.03
2022-12-17T20:01:39.792Z,41.90
2022-12-17T20:04:06.501Z,36.58
2022-12-17T20:06:35.304Z,36.65
2022-12-17T20:09:04.827Z,34.90
2022-12-17T20:11:35.617Z,35.55
2022-12-17T20:14:13.129Z,34.72
2022-12-17T20:16:52.354Z,33.17
2022-12-17T20:21:47.823Z,33.55
2022-12-17T20:24:15.642Z,35.47
2022-12-17T20:26:42.799Z,36.05
2022-12-17T20:29:09.941Z,37.28
2022-12-17T20:31:37.333Z,35.72
2022-12-17T20:34:06.177Z,36.88
2022-12-17T20:36:33.092Z,42.38
2022-12-17T20:38:59.748Z,39.92
2022-12-17T20:41:28.724Z,41.30
2022-12-17T20:43:55.710Z,39.20
2022-12-17T20:46:24.789Z,34.10
2022-12-17T20:48:52.066Z,34.58
2022-12-17T20:51:24.495Z,31.60
2022-12-17T20:53:52.829Z,31.55
2022-12-17T20:58:53.238Z,30.73
2022-12-17T21:01:22.659Z,33.08
2022-12-17T21:03:51.315Z,33.00
2022-12-17T21:06:24.112Z,30.92
2022-12-17T21:08:52.604Z,29.95
2022-12-17T21:11:22.278Z,30.90
2022-12-17T21:16:18.792Z,30.27
2022-12-17T21:18:45.726Z,31.63
2022-12-17T21:21:16.167Z,30.05
2022-12-17T21:23:42.828Z,34.90
2022-12-17T21:26:15.925Z,42.63
2022-12-17T21:28:47.426Z,43.03
2022-12-17T21:31:23.573Z,43.80
2022-12-17T21:33:56.267Z,43.92
2022-12-17T21:36:24.210Z,42.70
2022-12-17T21:38:52.077Z,44.45
2022-12-17T21:41:21.623Z,46.30
2022-12-17T21:43:51.879Z,44.47
2022-12-17T21:46:18.811Z,41.72
2022-12-17T21:48:45.851Z,40.55
2022-12-17T21:51:13.793Z,38.65
2022-12-17T21:53:43.551Z,36.42
2022-12-17T21:56:16.666Z,34.65
2022-12-17T21:58:45.225Z,34.42
2022-12-17T22:01:18.697Z,34.03
2022-12-17T22:03:48.386Z,32.13
2022-12-17T22:06:24.598Z,30.75
2022-12-17T22:09:10.766Z,29.67
2022-12-17T22:11:48.355Z,32.45
2022-12-17T22:14:20.595Z,33.25
2022-12-17T22:16:49.314Z,31.90
2022-12-17T22:19:23.032Z,32.80
2022-12-17T22:21:54.066Z,31.02
2022-12-17T22:24:25.258Z,32.75
2022-12-17T22:26:59.459Z,32.85
2022-12-17T22:29:49.373Z,32.88
2022-12-17T22:32:34.646Z,32.35
2022-12-17T22:35:47.141Z,34.05
2022-12-17T22:41:01.890Z,34.92
2022-12-17T22:44:30.354Z,33.85
2022-12-17T22:44:45.245Z,35.45
2022-12-17T22:46:19.793Z,34.47
2022-12-17T22:48:48.279Z,35.45
2022-12-17T22:51:16.404Z,34.25
2022-12-17T22:53:51.659Z,36.15
2022-12-17T22:56:27.418Z,35.47
2022-12-17T22:59:07.086Z,33.35
2022-12-17T23:01:34.774Z,33.58
2022-12-17T23:04:02.906Z,35.70
2022-12-17T23:06:30.069Z,36.42
2022-12-17T23:08:56.771Z,37.33
2022-12-17T23:11:25.881Z,37.38
2022-12-17T23:13:52.984Z,37.22
2022-12-17T23:16:19.978Z,35.78
2022-12-17T23:18:48.637Z,38.05
2022-12-17T23:21:20.728Z,34.15
2022-12-17T23:23:47.342Z,33.38
2022-12-17T23:26:21.294Z,35.60
2022-12-17T23:28:48.443Z,34.25
2022-12-17T23:31:20.489Z,32.17
2022-12-17T23:33:47.678Z,36.65
2022-12-17T23:36:19.660Z,35.00
2022-12-17T23:38:47.505Z,34.03
2022-12-17T23:41:21.848Z,32.97
2022-12-17T23:43:49.253Z,35.75
2022-12-17T23:46:18.246Z,33.67
2022-12-17T23:48:50.924Z,33.58
2022-12-17T23:51:19.600Z,34.67
2022-12-17T23:53:46.827Z,33.20
2022-12-17T23:56:19.676Z,35.65
2022-12-17T23:58:47.220Z,34.50
